RPLB

Subic Bay International Airport

Olongapo City, Philippines
TAF RPLB 231700Z 2318/2418 05005KT 9999 FEW020 TX36/2406Z TN26/2322Z TEMPO 2318/2324 06007KT FEW020 SCT080
Issued Valid From Valid To
Apr-23 @ 17:00 UTC
(6 hours ago)
Apr-23 @ 18:00 UTC
(5 hours ago)
Apr-24 @ 18:00 UTC
(in 19 hours)
Apr-23 @ 18:00 to Apr-24 @ 18:00
TAF RPLB 231700Z 2318/2418 05005KT 9999 FEW020 TX36/2406Z TN26/2322Z
Wind Visibility Clouds
50° at 5 knots 10,000+ meters
  • Few at 2,000' AGL
Temporary Apr-23 @ 18:00 to Apr-24 @ 00:00
TEMPO 2318/2324 06007KT FEW020 SCT080
Wind Clouds
60° at 7 knots
  • Few at 2,000' AGL
  • Scattered at 8,000' AGL
TAF RPLB 231700Z 2318/2418 05005KT 9999 FEW020 TX36/2406Z TN26/2322Z TEMPO 2318/2324 06007KT FEW020 SCT080
Issued Apr-23 @ 17:00 UTC
(6 hours ago)
Valid From Apr-23 @ 18:00 UTC
(5 hours ago)
Valid To Apr-24 @ 18:00 UTC
(in 19 hours)
Apr-23 @ 18:00 - Apr-24 @ 18:00
Wind Visibility
50° at 5 knots 10,000+ meters
Clouds
  • Few at 2,000' AGL
Temporary Apr-23 @ 18:00 - Apr-24 @ 00:00
Wind
60° at 7 knots
Clouds
  • Few at 2,000' AGL
  • Scattered at 8,000' AGL